createdAt,value
2022-12-31T00:01:53.822Z,97187.94
2022-12-31T00:04:25.004Z,97184.09
2022-12-31T00:06:53.889Z,97182.59
2022-12-31T00:09:22.756Z,97188.72
2022-12-31T00:11:51.883Z,97185.59
2022-12-31T00:14:18.997Z,97183.72
2022-12-31T00:16:45.821Z,97187.31
2022-12-31T00:19:15.615Z,97183.06
2022-12-31T00:21:43.579Z,97200.19
2022-12-31T00:24:11.224Z,97184.41
2022-12-31T00:26:37.936Z,97188.63
2022-12-31T00:29:09.963Z,97195.34
2022-12-31T00:31:38.543Z,97189.28
2022-12-31T00:34:07.650Z,97193.69
2022-12-31T00:36:39.563Z,97185.56
2022-12-31T00:39:08.374Z,97189.88
2022-12-31T00:41:35.166Z,97191.72
2022-12-31T00:44:06.660Z,97192.53
2022-12-31T00:46:33.589Z,97188.91
2022-12-31T00:49:02.541Z,97178.50
2022-12-31T00:51:31.661Z,97168.22
2022-12-31T00:54:05.327Z,97181.88
2022-12-31T00:56:35.554Z,97193.53
2022-12-31T00:59:04.611Z,97191.66
2022-12-31T01:01:37.209Z,97194.75
2022-12-31T01:04:09.399Z,97197.50
2022-12-31T01:06:36.703Z,97195.19
2022-12-31T01:09:06.542Z,97193.63
2022-12-31T01:11:33.510Z,97190.53
2022-12-31T01:14:02.937Z,97194.38
2022-12-31T01:16:31.099Z,97195.97
2022-12-31T01:19:04.293Z,97198.72
2022-12-31T01:21:37.858Z,97208.34
2022-12-31T01:24:04.958Z,97206.06
2022-12-31T01:26:32.048Z,97203.00
2022-12-31T01:29:00.837Z,97203.81
2022-12-31T01:31:28.295Z,97207.69
2022-12-31T01:33:57.357Z,97200.41
2022-12-31T01:36:26.787Z,97199.66
2022-12-31T01:38:55.454Z,97199.63
2022-12-31T01:41:25.352Z,97199.22
2022-12-31T01:43:59.250Z,97198.81
2022-12-31T01:46:43.379Z,97188.75
2022-12-31T01:49:29.287Z,97194.50
2022-12-31T01:51:59.023Z,97192.88
2022-12-31T01:54:27.266Z,97198.28
2022-12-31T01:56:57.603Z,97194.78
2022-12-31T01:59:31.027Z,97194.06
2022-12-31T02:02:03.585Z,97200.66
2022-12-31T02:04:30.423Z,97198.28
2022-12-31T02:07:01.208Z,97200.22
2022-12-31T02:09:30.802Z,97199.91
2022-12-31T02:11:57.403Z,97204.88
2022-12-31T02:14:38.254Z,97201.00
2022-12-31T02:17:14.399Z,97192.09
2022-12-31T02:20:04.584Z,97197.50
2022-12-31T02:22:49.673Z,97196.69
2022-12-31T02:25:28.449Z,97195.88
2022-12-31T02:28:16.500Z,97200.56
2022-12-31T02:30:50.300Z,97211.44
2022-12-31T02:33:55.020Z,97206.03
2022-12-31T02:36:27.714Z,97212.94
2022-12-31T02:38:59.011Z,97208.34
2022-12-31T02:41:46.689Z,97219.13
2022-12-31T02:44:29.123Z,97210.63
2022-12-31T02:47:07.954Z,97219.91
2022-12-31T02:49:43.322Z,97219.84
2022-12-31T02:52:27.448Z,97229.84
2022-12-31T02:55:15.590Z,97211.28
2022-12-31T02:58:04.171Z,97214.78
2022-12-31T03:01:13.532Z,97217.13
2022-12-31T03:03:42.720Z,97221.78
2022-12-31T03:06:13.468Z,97226.44
2022-12-31T03:09:03.145Z,97228.03
2022-12-31T03:11:48.309Z,97233.03
2022-12-31T03:14:14.839Z,97234.91
2022-12-31T03:16:46.230Z,97238.38
2022-12-31T03:19:31.360Z,97237.22
2022-12-31T03:22:16.775Z,97243.78
2022-12-31T03:25:01.917Z,97245.72
2022-12-31T03:27:31.462Z,97244.19
2022-12-31T03:29:58.025Z,97248.44
2022-12-31T03:32:24.602Z,97254.22
2022-12-31T03:34:53.405Z,97254.94
2022-12-31T03:37:22.010Z,97250.69
2022-12-31T03:39:50.837Z,97253.00
2022-12-31T03:42:17.382Z,97255.72
2022-12-31T03:44:43.949Z,97259.97
2022-12-31T03:47:10.783Z,97256.09
2022-12-31T03:49:37.325Z,97258.41
2022-12-31T03:52:09.328Z,97259.56
2022-12-31T03:54:35.894Z,97261.88
2022-12-31T03:57:02.420Z,97268.47
2022-12-31T03:59:31.970Z,97264.97
2022-12-31T04:02:01.019Z,97265.75
2022-12-31T04:04:27.666Z,97269.19
2022-12-31T04:06:58.945Z,97270.00
2022-12-31T04:09:25.572Z,97266.16
2022-12-31T04:11:52.224Z,97261.91
2022-12-31T04:14:21.764Z,97267.72
2022-12-31T04:16:48.681Z,97268.06
2022-12-31T04:19:17.418Z,97275.03
2022-12-31T04:21:44.001Z,97276.97
2022-12-31T04:24:13.079Z,97278.91
2022-12-31T04:26:43.754Z,97293.22
2022-12-31T04:29:13.224Z,97289.31
2022-12-31T04:31:39.784Z,97283.91
2022-12-31T04:34:08.589Z,97282.78
2022-12-31T04:36:35.642Z,97280.03
2022-12-31T04:39:04.543Z,97269.19
2022-12-31T04:41:33.562Z,97266.13
2022-12-31T04:44:02.475Z,97261.09
2022-12-31T04:46:31.218Z,97261.88
2022-12-31T04:48:58.323Z,97267.28
2022-12-31T04:51:29.333Z,97267.28
2022-12-31T04:53:56.671Z,97271.94
2022-12-31T04:56:28.780Z,97279.66
2022-12-31T04:58:55.515Z,97282.00
2022-12-31T05:01:22.886Z,97292.84
2022-12-31T05:03:50.022Z,97287.38
2022-12-31T05:06:21.819Z,97292.75
2022-12-31T05:08:49.244Z,97293.53
2022-12-31T05:11:18.668Z,97285.78
2022-12-31T05:13:45.351Z,97281.53
2022-12-31T05:16:12.135Z,97285.44
2022-12-31T05:18:41.499Z,97294.00
2022-12-31T05:21:08.229Z,97299.44
2022-12-31T05:23:35.075Z,97282.09
2022-12-31T05:26:04.080Z,97289.09
2022-12-31T05:28:33.170Z,97296.03
2022-12-31T05:31:00.637Z,97288.69
2022-12-31T05:33:29.433Z,97289.09
2022-12-31T05:35:58.391Z,97295.66
2022-12-31T05:38:28.494Z,97301.91
2022-12-31T05:41:05.981Z,97301.91
2022-12-31T05:43:32.742Z,97311.22
2022-12-31T05:46:05.374Z,97312.78
2022-12-31T05:48:34.428Z,97312.38
2022-12-31T05:51:01.276Z,97306.25
2022-12-31T05:53:27.931Z,97307.81
2022-12-31T05:55:56.966Z,97305.88
2022-12-31T05:58:25.781Z,97297.84
2022-12-31T06:00:54.976Z,97304.41
2022-12-31T06:03:21.749Z,97302.50
2022-12-31T06:05:48.451Z,97312.59
2022-12-31T06:08:17.558Z,97315.34
2022-12-31T06:10:46.357Z,97305.66
2022-12-31T06:13:12.922Z,97312.28
2022-12-31T06:15:40.285Z,97330.13
2022-12-31T06:18:07.589Z,97327.84
2022-12-31T06:20:41.026Z,97336.38
2022-12-31T06:23:09.938Z,97326.34
2022-12-31T06:25:42.333Z,97327.91
2022-12-31T06:28:13.243Z,97329.47
2022-12-31T06:30:47.414Z,97325.97
2022-12-31T06:33:14.037Z,97325.22
2022-12-31T06:35:44.138Z,97319.03
2022-12-31T06:38:10.704Z,97328.31
2022-12-31T06:40:38.063Z,97328.28
2022-12-31T06:43:05.324Z,97333.69
2022-12-31T06:45:31.867Z,97339.50
2022-12-31T06:48:00.635Z,97346.06
2022-12-31T06:50:29.488Z,97334.09
2022-12-31T06:52:56.021Z,97343.75
2022-12-31T06:55:22.950Z,97346.06
2022-12-31T06:57:49.743Z,97350.69
2022-12-31T07:00:19.700Z,97346.84
2022-12-31T07:03:10.844Z,97344.13
2022-12-31T07:05:52.018Z,97345.66
2022-12-31T07:08:30.770Z,97342.13
2022-12-31T07:11:08.083Z,97352.63
2022-12-31T07:13:53.242Z,97370.38
2022-12-31T07:16:34.666Z,97365.75
2022-12-31T07:19:52.470Z,97359.97
2022-12-31T07:22:24.120Z,97371.94
2022-12-31T07:24:50.955Z,97373.88
2022-12-31T07:27:37.873Z,97378.53
2022-12-31T07:30:15.933Z,97386.25
2022-12-31T07:33:09.702Z,97370.78
2022-12-31T07:35:48.758Z,97374.28
2022-12-31T07:38:28.538Z,97379.69
2022-12-31T07:41:13.510Z,97388.91
2022-12-31T07:43:52.207Z,97377.34
2022-12-31T07:46:29.940Z,97381.56
2022-12-31T07:48:56.819Z,97383.91
2022-12-31T07:51:25.901Z,97387.00
2022-12-31T07:53:57.207Z,97383.47
2022-12-31T07:56:23.833Z,97383.91
2022-12-31T07:58:56.284Z,97383.88
2022-12-31T08:01:41.836Z,97387.72
2022-12-31T08:04:11.489Z,97395.09
2022-12-31T08:06:40.780Z,97404.34
2022-12-31T08:09:29.558Z,97404.72
2022-12-31T08:12:01.442Z,97411.97
2022-12-31T08:14:34.746Z,97406.94
2022-12-31T08:17:01.588Z,97400.00
2022-12-31T08:19:31.249Z,97414.25
2022-12-31T08:22:15.961Z,97409.19
2022-12-31T08:25:23.715Z,97402.25
2022-12-31T08:27:59.210Z,97399.53
2022-12-31T08:30:37.550Z,97393.28
2022-12-31T08:33:54.895Z,97387.78
2022-12-31T08:36:24.403Z,97386.59
2022-12-31T08:39:01.371Z,97386.16
2022-12-31T08:41:43.274Z,97393.09
2022-12-31T08:44:31.696Z,97389.19
2022-12-31T08:47:22.859Z,97394.59
2022-12-31T08:49:52.182Z,97398.00
2022-12-31T08:52:26.943Z,97397.19
2022-12-31T08:54:54.034Z,97389.41
2022-12-31T08:57:55.819Z,97392.41
2022-12-31T09:00:23.062Z,97387.72
2022-12-31T09:03:04.806Z,97384.94
2022-12-31T09:05:50.938Z,97398.78
2022-12-31T09:08:44.935Z,97390.56
2022-12-31T09:11:29.964Z,97397.13
2022-12-31T09:14:08.489Z,97395.88
2022-12-31T09:17:12.801Z,97402.84
2022-12-31T09:19:39.516Z,97395.03
2022-12-31T09:22:06.266Z,97400.38
2022-12-31T09:24:33.183Z,97397.25
2022-12-31T09:27:22.477Z,97393.66
2022-12-31T09:30:05.639Z,97396.34
2022-12-31T09:32:41.533Z,97404.81
2022-12-31T09:35:30.089Z,97412.47
2022-12-31T09:38:11.264Z,97404.16
2022-12-31T09:40:44.241Z,97394.84
2022-12-31T09:43:32.445Z,97397.50
2022-12-31T09:46:20.580Z,97395.97
2022-12-31T09:49:30.567Z,97398.25
2022-12-31T09:52:11.641Z,97393.94
2022-12-31T09:54:54.259Z,97400.53
2022-12-31T09:57:29.803Z,97413.97
2022-12-31T10:00:25.354Z,97412.28
2022-12-31T10:03:29.563Z,97412.41
2022-12-31T10:06:04.993Z,97400.59
2022-12-31T10:09:02.280Z,97398.69
2022-12-31T10:12:10.124Z,97394.09
2022-12-31T10:14:51.918Z,97384.31
2022-12-31T10:17:59.603Z,97379.59
2022-12-31T10:20:57.091Z,97381.13
2022-12-31T10:23:38.497Z,97374.06
2022-12-31T10:26:16.304Z,97373.59
2022-12-31T10:29:20.202Z,97372.59
2022-12-31T10:32:02.005Z,97361.75
2022-12-31T10:34:45.032Z,97357.31
2022-12-31T10:37:20.383Z,97362.94
2022-12-31T10:40:13.457Z,97355.06
2022-12-31T10:43:02.907Z,97345.19
2022-12-31T10:46:02.570Z,97345.81
2022-12-31T10:48:56.857Z,97344.31
2022-12-31T10:51:26.411Z,97332.09
2022-12-31T10:53:52.983Z,97327.03
2022-12-31T10:56:38.386Z,97328.97
2022-12-31T10:59:30.035Z,97323.44
2022-12-31T11:02:21.512Z,97326.66
2022-12-31T11:05:26.957Z,97323.03
2022-12-31T11:08:11.524Z,97306.47
2022-12-31T11:10:57.038Z,97303.47
2022-12-31T11:13:53.595Z,97300.84
2022-12-31T11:16:20.763Z,97294.22
2022-12-31T11:19:07.068Z,97295.47
2022-12-31T11:22:17.543Z,97302.34
2022-12-31T11:25:02.310Z,97299.19
2022-12-31T11:27:56.560Z,97293.47
2022-12-31T11:30:27.491Z,97290.00
2022-12-31T11:33:09.233Z,97282.31
2022-12-31T11:35:44.908Z,97283.44
2022-12-31T11:38:23.571Z,97287.50
2022-12-31T11:41:11.700Z,97275.03
2022-12-31T11:43:50.196Z,97278.00
2022-12-31T11:46:16.960Z,97272.09
2022-12-31T11:48:55.641Z,97275.44
2022-12-31T11:51:49.994Z,97268.38
2022-12-31T11:54:38.091Z,97255.81
2022-12-31T11:57:23.637Z,97258.28
2022-12-31T12:00:06.703Z,97258.28
2022-12-31T12:02:37.794Z,97249.28
2022-12-31T12:05:11.269Z,97250.06
2022-12-31T12:07:38.622Z,97245.38
2022-12-31T12:10:23.214Z,97246.63
2022-12-31T12:12:56.179Z,97240.97
2022-12-31T12:15:36.396Z,97235.50
2022-12-31T12:18:18.519Z,97232.44
2022-12-31T12:20:48.906Z,97230.50
2022-12-31T12:23:25.146Z,97233.50
2022-12-31T12:25:52.726Z,97234.75
2022-12-31T12:28:27.663Z,97226.25
2022-12-31T12:31:04.234Z,97222.06
2022-12-31T12:33:44.923Z,97222.94
2022-12-31T12:36:17.038Z,97213.16
2022-12-31T12:38:44.421Z,97215.63
2022-12-31T12:41:21.976Z,97211.00
2022-12-31T12:43:48.614Z,97216.63
2022-12-31T12:46:32.800Z,97214.25
2022-12-31T12:49:00.167Z,97213.91
2022-12-31T12:51:41.535Z,97215.50
2022-12-31T12:54:29.901Z,97219.34
2022-12-31T12:56:59.268Z,97209.66
2022-12-31T12:59:41.037Z,97211.25
2022-12-31T13:02:27.716Z,97207.00
2022-12-31T13:05:03.213Z,97214.75
2022-12-31T13:07:41.026Z,97210.25
2022-12-31T13:10:22.670Z,97201.16
2022-12-31T13:13:24.381Z,97207.09
2022-12-31T13:16:11.923Z,97204.81
2022-12-31T13:18:44.359Z,97204.97
2022-12-31T13:21:19.980Z,97195.59
2022-12-31T13:24:00.067Z,97203.34
2022-12-31T13:27:01.953Z,97207.94
2022-12-31T13:29:33.223Z,97200.63
2022-12-31T13:32:04.881Z,97208.88
2022-12-31T13:34:36.557Z,97211.59
2022-12-31T13:37:06.967Z,97210.72
2022-12-31T13:39:47.115Z,97208.78
2022-12-31T13:42:19.732Z,97208.78
2022-12-31T13:44:54.595Z,97198.00
2022-12-31T13:47:32.554Z,97208.09
2022-12-31T13:50:02.664Z,97203.75
2022-12-31T13:52:48.986Z,97204.34
2022-12-31T13:55:26.525Z,97203.50
2022-12-31T13:58:16.333Z,97204.44
2022-12-31T14:01:09.117Z,97206.75
2022-12-31T14:03:50.701Z,97209.94
2022-12-31T14:06:52.054Z,97213.16
2022-12-31T14:09:33.689Z,97217.00
2022-12-31T14:12:30.699Z,97225.31
2022-12-31T14:15:18.419Z,97224.19
2022-12-31T14:18:34.171Z,97230.44
2022-12-31T14:21:48.690Z,97222.78
2022-12-31T14:24:49.536Z,97225.09
2022-12-31T14:27:26.397Z,97225.97
2022-12-31T14:30:03.880Z,97235.81
2022-12-31T14:32:45.768Z,97234.50
2022-12-31T14:35:42.620Z,97234.56
2022-12-31T14:38:21.853Z,97241.19
2022-12-31T14:41:10.337Z,97244.41
2022-12-31T14:43:50.504Z,97245.56
2022-12-31T14:46:44.618Z,97251.16
2022-12-31T14:49:53.130Z,97253.16
2022-12-31T14:52:21.769Z,97252.84
2022-12-31T14:55:22.972Z,97262.59
2022-12-31T15:00:51.209Z,97257.78
2022-12-31T15:03:17.802Z,97250.38
2022-12-31T15:06:12.318Z,97264.44
2022-12-31T15:08:51.097Z,97269.19
2022-12-31T15:11:53.953Z,97268.47
2022-12-31T15:14:37.627Z,97265.13
2022-12-31T15:17:29.446Z,97270.19
2022-12-31T15:20:33.411Z,97275.16
2022-12-31T15:23:00.123Z,97276.00
2022-12-31T15:25:40.044Z,97277.22
2022-12-31T15:28:33.619Z,97291.66
2022-12-31T15:31:13.086Z,97279.66
2022-12-31T15:33:54.823Z,97283.19
2022-12-31T15:36:29.494Z,97285.63
2022-12-31T15:39:09.113Z,97284.84
2022-12-31T15:42:18.819Z,97280.66
2022-12-31T15:44:45.184Z,97291.50
2022-12-31T15:47:36.407Z,97279.97
2022-12-31T15:50:10.160Z,97288.88
2022-12-31T15:52:43.357Z,97292.75
2022-12-31T15:55:33.463Z,97294.41
2022-12-31T15:58:18.161Z,97298.28
2022-12-31T16:01:10.077Z,97302.25
2022-12-31T16:03:37.377Z,97304.25
2022-12-31T16:06:11.112Z,97301.16
2022-12-31T16:08:43.969Z,97303.53
2022-12-31T16:11:13.630Z,97317.44
2022-12-31T16:13:47.105Z,97316.84
2022-12-31T16:16:27.972Z,97314.97
2022-12-31T16:18:56.150Z,97324.28
2022-12-31T16:21:24.873Z,97322.41
2022-12-31T16:23:53.810Z,97322.47
2022-12-31T16:26:25.643Z,97336.44
2022-12-31T16:28:52.424Z,97328.34
2022-12-31T16:31:21.932Z,97328.41
2022-12-31T16:33:48.660Z,97331.06
2022-12-31T16:36:25.646Z,97333.41
2022-12-31T16:38:59.471Z,97331.91
2022-12-31T16:41:26.041Z,97335.03
2022-12-31T16:43:52.642Z,97343.59
2022-12-31T16:46:28.139Z,97335.47
2022-12-31T16:48:54.703Z,97338.56
2022-12-31T16:51:26.906Z,97336.63
2022-12-31T16:53:53.639Z,97338.59
2022-12-31T16:56:36.672Z,97335.94
2022-12-31T16:59:17.757Z,97340.94
2022-12-31T17:01:51.761Z,97343.69
2022-12-31T17:04:20.672Z,97344.47
2022-12-31T17:06:50.505Z,97342.53
2022-12-31T17:09:23.451Z,97345.25
2022-12-31T17:11:54.124Z,97342.16
2022-12-31T17:14:28.719Z,97344.09
2022-12-31T17:17:06.957Z,97350.25
2022-12-31T17:19:45.921Z,97333.34
2022-12-31T17:22:35.871Z,97347.72
2022-12-31T17:25:08.576Z,97339.25
2022-12-31T17:27:39.769Z,97333.88
2022-12-31T17:30:27.903Z,97336.59
2022-12-31T17:33:10.051Z,97346.66
2022-12-31T17:35:42.482Z,97343.13
2022-12-31T17:38:20.899Z,97342.34
2022-12-31T17:40:53.352Z,97343.88
2022-12-31T17:43:22.616Z,97339.13
2022-12-31T17:45:54.256Z,97349.97
2022-12-31T17:48:26.033Z,97349.63
2022-12-31T17:50:57.043Z,97350.00
2022-12-31T17:53:26.343Z,97344.53
2022-12-31T17:56:01.794Z,97341.13
2022-12-31T17:58:36.498Z,97346.59
2022-12-31T18:01:07.236Z,97350.53
2022-12-31T18:03:34.284Z,97354.03
2022-12-31T18:06:05.373Z,97362.44
2022-12-31T18:08:32.081Z,97354.50
2022-12-31T18:11:01.177Z,97359.56
2022-12-31T18:13:30.893Z,97359.63
2022-12-31T18:16:00.043Z,97357.72
2022-12-31T18:18:32.751Z,97358.09
2022-12-31T18:21:07.882Z,97351.50
2022-12-31T18:23:47.940Z,97356.91
2022-12-31T18:26:17.286Z,97364.22
2022-12-31T18:28:44.081Z,97360.00
2022-12-31T18:31:19.359Z,97361.56
2022-12-31T18:33:47.193Z,97365.06
2022-12-31T18:36:16.379Z,97369.41
2022-12-31T18:38:45.470Z,97368.59
2022-12-31T18:41:23.170Z,97368.97
2022-12-31T18:43:53.044Z,97370.63
2022-12-31T18:46:22.251Z,97369.22
2022-12-31T18:48:53.607Z,97364.63
2022-12-31T18:51:27.846Z,97368.56
2022-12-31T18:53:56.247Z,97366.63
2022-12-31T18:56:25.143Z,97361.97
2022-12-31T18:58:54.166Z,97376.31
2022-12-31T19:01:38.110Z,97367.03
2022-12-31T19:04:31.232Z,97374.00
2022-12-31T19:07:00.254Z,97374.38
2022-12-31T19:12:17.251Z,97364.78
2022-12-31T19:14:43.901Z,97369.75
2022-12-31T19:17:12.798Z,97374.38
2022-12-31T19:19:39.596Z,97381.72
2022-12-31T19:22:13.492Z,97373.63
2022-12-31T19:24:40.221Z,97380.19
2022-12-31T19:27:06.778Z,97368.66
2022-12-31T19:29:36.425Z,97373.31
2022-12-31T19:32:03.130Z,97376.03
2022-12-31T19:34:32.046Z,97365.47
2022-12-31T19:37:00.873Z,97373.25
2022-12-31T19:39:27.600Z,97370.91
2022-12-31T19:41:59.323Z,97369.84
2022-12-31T19:44:29.154Z,97366.75
2022-12-31T19:46:55.749Z,97360.63
2022-12-31T19:49:22.343Z,97356.38
2022-12-31T19:51:53.469Z,97362.94
2022-12-31T19:54:22.273Z,97366.09
2022-12-31T19:56:51.218Z,97365.81
2022-12-31T19:59:17.807Z,97374.78
2022-12-31T20:01:47.420Z,97370.19
2022-12-31T20:04:14.108Z,97367.13
2022-12-31T20:06:40.705Z,97372.97
2022-12-31T20:09:09.350Z,97371.09
2022-12-31T20:11:38.279Z,97369.56
2022-12-31T20:14:04.912Z,97364.56
2022-12-31T20:16:32.231Z,97370.38
2022-12-31T20:18:58.839Z,97367.69
2022-12-31T20:21:28.966Z,97372.34
2022-12-31T20:24:01.453Z,97375.44
2022-12-31T20:26:28.091Z,97373.50
2022-12-31T20:28:54.704Z,97371.19
2022-12-31T20:31:24.809Z,97370.41
2022-12-31T20:33:54.586Z,97365.41
2022-12-31T20:36:22.339Z,97369.25
2022-12-31T20:38:49.178Z,97362.31
2022-12-31T20:41:22.152Z,97360.34
2022-12-31T20:43:51.462Z,97358.81
2022-12-31T20:46:24.466Z,97358.81
2022-12-31T20:48:52.868Z,97364.97
2022-12-31T20:51:26.309Z,97354.47
2022-12-31T20:54:06.798Z,97354.81
2022-12-31T20:56:39.247Z,97351.28
2022-12-31T20:59:09.864Z,97359.47
2022-12-31T21:02:11.742Z,97371.84
2022-12-31T21:04:25.945Z,97366.84
2022-12-31T21:06:52.582Z,97372.31
2022-12-31T21:09:23.985Z,97376.19
2022-12-31T21:12:11.762Z,97380.06
2022-12-31T21:14:44.409Z,97384.72
2022-12-31T21:17:11.535Z,97386.66
2022-12-31T21:19:42.810Z,97387.47
2022-12-31T21:22:12.441Z,97389.78
2022-12-31T21:24:41.299Z,97394.44
2022-12-31T21:27:07.906Z,97397.16
2022-12-31T21:29:41.842Z,97396.38
2022-12-31T21:32:19.282Z,97395.59
2022-12-31T21:35:00.183Z,97396.38
2022-12-31T21:37:59.198Z,97403.34
2022-12-31T21:40:21.183Z,97401.41
2022-12-31T21:42:50.711Z,97412.22
2022-12-31T21:45:17.277Z,97418.00
2022-12-31T21:48:02.265Z,97414.16
2022-12-31T21:50:31.317Z,97423.81
2022-12-31T21:52:57.947Z,97426.50
2022-12-31T21:55:45.614Z,97441.19
2022-12-31T21:58:25.954Z,97442.72
2022-12-31T22:01:12.657Z,97447.34
2022-12-31T22:03:41.968Z,97451.63
2022-12-31T22:06:29.123Z,97453.19
2022-12-31T22:09:01.603Z,97450.44
2022-12-31T22:11:30.747Z,97463.59
2022-12-31T22:13:57.515Z,97457.03
2022-12-31T22:16:24.304Z,97453.19
2022-12-31T22:18:53.320Z,97460.50
2022-12-31T22:21:22.356Z,97464.38
2022-12-31T22:23:51.954Z,97470.19
2022-12-31T22:26:29.427Z,97467.88
2022-12-31T22:28:59.332Z,97474.41
2022-12-31T22:31:30.509Z,97472.91
2022-12-31T22:33:59.818Z,97472.47
2022-12-31T22:36:26.659Z,97467.84
2022-12-31T22:38:58.192Z,97468.25
2022-12-31T22:41:29.355Z,97472.47
2022-12-31T22:44:03.618Z,97468.63
2022-12-31T22:46:33.118Z,97475.56
2022-12-31T22:49:01.686Z,97479.81
2022-12-31T22:51:56.329Z,97472.84
2022-12-31T22:54:18.729Z,97472.47
2022-12-31T22:56:47.879Z,97481.78
2022-12-31T22:59:14.468Z,97482.53
2022-12-31T23:01:41.381Z,97483.69
2022-12-31T23:04:08.094Z,97485.22
2022-12-31T23:06:43.447Z,97486.41
2022-12-31T23:09:30.500Z,97484.84
2022-12-31T23:11:57.213Z,97485.25
2022-12-31T23:14:44.911Z,97494.50
2022-12-31T23:17:40.451Z,97492.59
2022-12-31T23:20:30.173Z,97493.75
2022-12-31T23:23:07.091Z,97502.25
2022-12-31T23:25:35.469Z,97499.53
2022-12-31T23:28:05.629Z,97503.78
2022-12-31T23:30:35.112Z,97507.66
2022-12-31T23:33:01.752Z,97518.47
2022-12-31T23:35:31.009Z,97520.41
2022-12-31T23:37:57.632Z,97525.00
2022-12-31T23:40:34.234Z,97529.66
2022-12-31T23:43:09.210Z,97527.72
2022-12-31T23:45:36.580Z,97529.66
2022-12-31T23:48:03.424Z,97540.47
2022-12-31T23:50:32.387Z,97531.94
2022-12-31T23:52:58.948Z,97539.69
2022-12-31T23:55:28.553Z,97542.00
2022-12-31T23:57:55.279Z,97534.69
